createdAt,value
2023-01-20T00:00:01.682Z,96164.19
2023-01-20T00:02:28.470Z,96146.09
2023-01-20T00:04:55.271Z,96152.19
2023-01-20T00:07:22.313Z,96137.16
2023-01-20T00:09:49.268Z,96140.44
2023-01-20T00:12:16.511Z,96128.78
2023-01-20T00:14:43.230Z,96154.13
2023-01-20T00:17:09.909Z,96146.19
2023-01-20T00:19:36.701Z,96152.47
2023-01-20T00:22:03.485Z,96139.19
2023-01-20T00:24:30.177Z,96136.91
2023-01-20T00:26:56.935Z,96134.25
2023-01-20T00:29:23.996Z,96143.19
2023-01-20T00:31:50.752Z,96141.91
2023-01-20T00:34:17.430Z,96124.09
2023-01-20T00:36:44.417Z,96146.03
2023-01-20T00:39:11.228Z,96146.84
2023-01-20T00:41:38.130Z,96121.34
2023-01-20T00:44:05.125Z,96147.09
2023-01-20T00:46:31.871Z,96136.16
2023-01-20T00:48:58.707Z,96144.56
2023-01-20T00:51:25.535Z,96126.06
2023-01-20T00:53:52.315Z,96129.38
2023-01-20T00:56:19.082Z,96124.53
2023-01-20T00:58:45.890Z,96117.06
2023-01-20T01:01:13.173Z,96114.44
2023-01-20T01:03:40.216Z,96131.25
2023-01-20T01:06:17.723Z,96117.69
2023-01-20T01:08:45.228Z,96128.63
2023-01-20T01:11:13.310Z,96141.47
2023-01-20T01:13:40.338Z,96137.56
2023-01-20T01:16:15.163Z,96136.47
2023-01-20T01:18:42.437Z,96140.91
2023-01-20T01:21:11.425Z,96122.16
2023-01-20T01:23:38.138Z,96118.88
2023-01-20T01:26:05.007Z,96128.81
2023-01-20T01:28:32.017Z,96156.13
2023-01-20T01:31:04.101Z,96137.56
2023-01-20T01:33:31.354Z,96134.00
2023-01-20T01:36:02.992Z,96136.09
2023-01-20T01:38:29.918Z,96133.44
2023-01-20T01:40:56.955Z,96132.47
2023-01-20T01:43:25.760Z,96125.47
2023-01-20T01:45:53.065Z,96098.66
2023-01-20T01:48:28.420Z,96094.38
2023-01-20T01:51:07.628Z,96100.56
2023-01-20T01:53:41.835Z,96096.75
2023-01-20T01:56:10.248Z,96078.16
2023-01-20T01:58:41.134Z,96062.94
2023-01-20T02:01:08.056Z,96079.34
2023-01-20T02:03:56.843Z,96074.06
2023-01-20T02:06:26.141Z,96061.06
2023-01-20T02:08:53.381Z,96079.34
2023-01-20T02:11:20.240Z,96065.22
2023-01-20T02:13:47.177Z,96076.09
2023-01-20T02:16:40.584Z,96048.47
2023-01-20T02:19:25.134Z,96071.88
2023-01-20T02:22:00.972Z,96065.59
2023-01-20T02:24:48.913Z,96073.06
2023-01-20T02:27:54.530Z,96077.72
2023-01-20T02:30:57.551Z,96095.47
2023-01-20T02:33:53.268Z,96131.66
2023-01-20T02:36:25.884Z,96140.84
2023-01-20T02:39:27.052Z,96153.41
2023-01-20T02:42:00.451Z,96188.75
2023-01-20T02:44:54.968Z,96196.13
2023-01-20T02:47:21.588Z,96204.25
2023-01-20T02:49:55.449Z,96215.28
2023-01-20T02:52:28.436Z,96228.75
2023-01-20T02:54:59.543Z,96232.41
2023-01-20T02:57:31.303Z,96238.84
2023-01-20T03:00:05.669Z,96218.66
2023-01-20T03:02:36.070Z,96230.69
2023-01-20T03:05:08.833Z,96204.00
2023-01-20T03:07:38.880Z,96219.59
2023-01-20T03:10:10.405Z,96216.00
2023-01-20T03:12:42.667Z,96227.84
2023-01-20T03:15:10.967Z,96214.47
2023-01-20T03:17:37.967Z,96242.91
2023-01-20T03:20:05.527Z,96223.97
2023-01-20T03:22:32.649Z,96217.31
2023-01-20T03:25:00.039Z,96235.50
2023-01-20T03:27:27.311Z,96235.53
2023-01-20T03:29:54.332Z,96225.34
2023-01-20T03:32:27.054Z,96202.47
2023-01-20T03:34:56.020Z,96220.44
2023-01-20T03:37:23.408Z,96221.13
2023-01-20T03:39:51.138Z,96205.81
2023-01-20T03:42:31.881Z,96200.38
2023-01-20T03:45:23.648Z,96177.53
2023-01-20T03:48:06.850Z,96180.13
2023-01-20T03:50:55.240Z,96185.00
2023-01-20T03:53:45.623Z,96164.78
2023-01-20T03:56:19.346Z,96194.81
2023-01-20T03:58:50.541Z,96179.84
2023-01-20T04:01:21.339Z,96197.06
2023-01-20T04:03:52.252Z,96170.97
2023-01-20T04:06:21.780Z,96185.31
2023-01-20T04:08:56.737Z,96152.34
2023-01-20T04:11:24.398Z,96151.47
2023-01-20T04:13:51.525Z,96144.91
2023-01-20T04:16:19.882Z,96144.41
2023-01-20T04:18:49.665Z,96156.34
2023-01-20T04:21:22.876Z,96164.81
2023-01-20T04:24:08.269Z,96153.34
2023-01-20T04:26:35.152Z,96157.72
2023-01-20T04:29:10.458Z,96138.44
2023-01-20T04:31:38.828Z,96118.03
2023-01-20T04:34:06.609Z,96139.91
2023-01-20T04:36:33.335Z,96119.03
2023-01-20T04:39:00.190Z,96121.81
2023-01-20T04:41:27.117Z,96116.22
2023-01-20T04:43:53.865Z,96098.75
2023-01-20T04:46:20.607Z,96112.50
2023-01-20T04:48:47.491Z,96096.72
2023-01-20T04:51:15.415Z,96082.78
2023-01-20T04:53:42.274Z,96069.88
2023-01-20T04:56:13.424Z,96059.59
2023-01-20T04:58:40.735Z,96062.41
2023-01-20T05:01:08.308Z,96082.53
2023-01-20T05:03:35.635Z,96086.50
2023-01-20T05:06:03.317Z,96065.94
2023-01-20T05:08:30.176Z,96058.22
2023-01-20T05:10:56.946Z,96050.41
2023-01-20T05:13:23.915Z,96044.53
2023-01-20T05:15:51.146Z,96038.31
2023-01-20T05:18:18.313Z,96029.28
2023-01-20T05:20:46.645Z,96028.47
2023-01-20T05:23:13.845Z,96005.25
2023-01-20T05:25:40.825Z,96012.13
2023-01-20T05:28:09.295Z,96014.78
2023-01-20T05:30:36.383Z,96028.63
2023-01-20T05:33:03.293Z,96012.66
2023-01-20T05:35:31.891Z,95990.22
2023-01-20T05:37:58.684Z,96003.28
2023-01-20T05:40:25.420Z,95998.81
2023-01-20T05:42:52.205Z,95982.94
2023-01-20T05:45:19.123Z,95985.06
2023-01-20T05:47:46.005Z,95979.81
2023-01-20T05:50:12.961Z,95960.22
2023-01-20T05:52:39.863Z,95952.16
2023-01-20T05:55:06.857Z,95933.69
2023-01-20T05:57:36.716Z,95967.00
2023-01-20T06:00:05.117Z,95922.03
2023-01-20T06:02:31.944Z,95936.03
2023-01-20T06:05:01.786Z,95929.69
2023-01-20T06:07:29.803Z,95908.53
2023-01-20T06:09:57.116Z,95939.34
2023-01-20T06:12:24.792Z,95935.56
2023-01-20T06:14:51.553Z,95900.94
2023-01-20T06:17:18.481Z,95925.09
2023-01-20T06:19:45.292Z,95951.03
2023-01-20T06:22:15.644Z,95948.25
2023-01-20T06:24:42.498Z,95923.69
2023-01-20T06:27:09.709Z,95921.78
2023-01-20T06:29:36.518Z,95924.16
2023-01-20T06:32:03.784Z,95921.97
2023-01-20T06:34:30.911Z,95948.53
2023-01-20T06:36:58.480Z,95927.25
2023-01-20T06:39:25.392Z,95924.75
2023-01-20T06:41:52.241Z,95939.53
2023-01-20T06:44:18.976Z,95911.56
2023-01-20T06:46:48.197Z,95918.50
2023-01-20T06:49:15.324Z,95908.09
2023-01-20T06:51:42.021Z,95946.97
2023-01-20T06:54:08.937Z,95920.78
2023-01-20T06:56:36.025Z,95898.28
2023-01-20T06:59:02.985Z,95898.53
2023-01-20T07:01:31.429Z,95912.63
2023-01-20T07:03:58.952Z,95906.16
2023-01-20T07:06:40.633Z,95918.16
2023-01-20T07:09:10.245Z,95917.13
2023-01-20T07:11:37.361Z,95899.19
2023-01-20T07:14:05.375Z,95876.56
2023-01-20T07:16:32.233Z,95916.94
2023-01-20T07:18:59.070Z,95886.38
2023-01-20T07:21:26.677Z,95896.50
2023-01-20T07:23:53.799Z,95891.94
2023-01-20T07:26:23.072Z,95909.88
2023-01-20T07:28:50.402Z,95896.53
2023-01-20T07:31:18.688Z,95891.25
2023-01-20T07:33:46.076Z,95899.84
2023-01-20T07:36:15.463Z,95897.19
2023-01-20T07:38:44.887Z,95881.97
2023-01-20T07:41:16.413Z,95895.81
2023-01-20T07:43:44.569Z,95912.31
2023-01-20T07:46:12.194Z,95885.13
2023-01-20T07:48:40.546Z,95924.63
2023-01-20T07:51:09.779Z,95927.50
2023-01-20T07:53:42.096Z,95929.00
2023-01-20T07:56:11.971Z,95954.66
2023-01-20T07:58:39.228Z,95938.44
2023-01-20T08:01:09.343Z,95916.03
2023-01-20T08:03:36.394Z,95911.28
2023-01-20T08:06:08.263Z,95974.97
2023-01-20T08:08:36.354Z,95960.22
2023-01-20T08:11:06.311Z,95930.25
2023-01-20T08:13:33.485Z,95913.03
2023-01-20T08:16:01.665Z,95945.91
2023-01-20T08:18:28.959Z,95945.66
2023-01-20T08:20:56.239Z,95936.44
2023-01-20T08:23:23.210Z,95929.81
2023-01-20T08:25:51.734Z,95950.75
2023-01-20T08:28:18.455Z,95932.13
2023-01-20T08:30:45.437Z,95940.28
2023-01-20T08:33:12.234Z,95929.72
2023-01-20T08:35:39.061Z,95974.63
2023-01-20T08:38:06.864Z,95954.22
2023-01-20T08:40:35.056Z,95943.94
2023-01-20T08:43:02.238Z,95913.34
2023-01-20T08:45:29.232Z,95931.84
2023-01-20T08:47:59.184Z,95905.28
2023-01-20T08:50:26.153Z,95911.00
2023-01-20T08:52:53.027Z,95897.31
2023-01-20T08:55:19.811Z,95872.91
2023-01-20T08:57:49.756Z,95904.22
2023-01-20T09:00:17.846Z,95902.16
2023-01-20T09:02:44.622Z,95895.69
2023-01-20T09:05:11.779Z,95902.72
2023-01-20T09:07:38.917Z,95932.75
2023-01-20T09:10:06.465Z,95930.00
2023-01-20T09:12:33.450Z,95945.34
2023-01-20T09:15:00.150Z,95964.53
2023-01-20T09:17:27.036Z,95973.19
2023-01-20T09:19:54.711Z,96009.28
2023-01-20T09:22:21.649Z,96011.63
2023-01-20T09:24:48.604Z,96005.31
2023-01-20T09:27:17.005Z,96023.78
2023-01-20T09:29:44.141Z,96055.75
2023-01-20T09:32:13.122Z,96074.25
2023-01-20T09:34:39.893Z,96066.38
2023-01-20T09:37:25.289Z,96074.63
2023-01-20T09:40:10.805Z,96070.72
2023-01-20T09:43:14.561Z,96072.72
2023-01-20T09:46:01.329Z,96076.31
2023-01-20T09:49:11.122Z,96060.53
2023-01-20T09:51:56.742Z,96059.56
2023-01-20T09:54:34.274Z,96078.03
2023-01-20T09:57:03.111Z,96088.28
2023-01-20T09:59:44.064Z,96093.50
2023-01-20T10:02:18.193Z,96101.22
2023-01-20T10:04:54.991Z,96115.50
2023-01-20T10:07:32.512Z,96114.47
2023-01-20T10:10:10.943Z,96117.41
2023-01-20T10:12:42.878Z,96109.28
2023-01-20T10:15:29.919Z,96088.09
2023-01-20T10:18:20.117Z,96080.81
2023-01-20T10:21:12.334Z,96083.25
2023-01-20T10:23:54.072Z,96072.25
2023-01-20T10:26:22.751Z,96074.22
2023-01-20T10:29:04.309Z,96070.16
2023-01-20T10:31:43.044Z,96066.06
2023-01-20T10:34:21.325Z,96055.38
2023-01-20T10:37:03.508Z,96024.19
2023-01-20T10:39:50.337Z,96002.72
2023-01-20T10:42:20.501Z,95978.94
2023-01-20T10:44:50.177Z,95960.75
2023-01-20T10:48:04.836Z,95947.13
2023-01-20T10:50:54.624Z,95970.75
2023-01-20T10:53:33.835Z,95962.06
2023-01-20T10:56:26.018Z,95943.53
2023-01-20T10:58:52.715Z,95929.91
2023-01-20T11:01:28.571Z,95932.53
2023-01-20T11:03:55.276Z,95917.44
2023-01-20T11:06:27.010Z,95915.78
2023-01-20T11:08:55.311Z,95923.16
2023-01-20T11:11:25.033Z,95926.28
2023-01-20T11:13:53.071Z,95928.56
2023-01-20T11:16:23.455Z,95934.81
2023-01-20T11:19:06.232Z,95915.88
2023-01-20T11:21:36.880Z,95918.78
2023-01-20T11:24:43.217Z,95907.44
2023-01-20T11:27:22.411Z,95908.41
2023-01-20T11:29:52.832Z,95899.97
2023-01-20T11:32:35.418Z,95898.25
2023-01-20T11:35:24.680Z,95894.28
2023-01-20T11:37:52.553Z,95891.84
2023-01-20T11:40:24.610Z,95903.31
2023-01-20T11:42:53.642Z,95900.16
2023-01-20T11:45:29.729Z,95889.31
2023-01-20T11:48:06.138Z,95875.34
2023-01-20T11:50:40.599Z,95886.47
2023-01-20T11:53:19.551Z,95876.59
2023-01-20T11:56:16.686Z,95863.53
2023-01-20T11:58:54.680Z,95838.84
2023-01-20T12:01:29.988Z,95834.03
2023-01-20T12:04:17.736Z,95814.41
2023-01-20T12:07:03.947Z,95808.16
2023-01-20T12:09:37.705Z,95815.06
2023-01-20T12:12:33.694Z,95795.94
2023-01-20T12:15:06.236Z,95809.44
2023-01-20T12:17:36.364Z,95809.59
2023-01-20T12:20:03.529Z,95833.00
2023-01-20T12:22:59.666Z,95815.47
2023-01-20T12:25:30.945Z,95815.16
2023-01-20T12:28:04.557Z,95811.09
2023-01-20T12:30:37.601Z,95816.16
2023-01-20T12:33:05.356Z,95819.09
2023-01-20T12:35:41.863Z,95786.94
2023-01-20T12:38:09.386Z,95791.03
2023-01-20T12:40:46.264Z,95787.63
2023-01-20T12:43:27.154Z,95785.81
2023-01-20T12:46:04.332Z,95779.91
2023-01-20T12:48:37.210Z,95777.28
2023-01-20T12:51:07.429Z,95761.66
2023-01-20T12:54:47.380Z,95750.50
2023-01-20T12:57:32.350Z,95754.41
2023-01-20T13:00:33.287Z,95790.25
2023-01-20T13:03:23.916Z,95780.06
2023-01-20T13:06:40.784Z,95777.44
2023-01-20T13:09:35.759Z,95773.84
2023-01-20T13:12:12.579Z,95762.66
2023-01-20T13:14:43.895Z,95761.97
2023-01-20T13:17:30.818Z,95764.94
2023-01-20T13:20:02.052Z,95785.66
2023-01-20T13:22:30.399Z,95762.00
2023-01-20T13:25:05.007Z,95762.47
2023-01-20T13:27:37.784Z,95771.69
2023-01-20T13:30:06.922Z,95742.50
2023-01-20T13:32:48.507Z,95735.22
2023-01-20T13:35:18.027Z,95746.63
2023-01-20T13:37:51.963Z,95749.31
2023-01-20T13:40:36.963Z,95769.56
2023-01-20T13:43:05.420Z,95762.91
2023-01-20T13:45:32.187Z,95762.59
2023-01-20T13:48:08.525Z,95772.16
2023-01-20T13:50:37.270Z,95775.50
2023-01-20T13:53:23.115Z,95769.28
2023-01-20T13:55:52.365Z,95721.41
2023-01-20T13:58:48.887Z,95738.78
2023-01-20T14:01:15.817Z,95774.56
2023-01-20T14:03:43.019Z,95790.47
2023-01-20T14:06:11.309Z,95786.38
2023-01-20T14:08:43.954Z,95785.41
2023-01-20T14:11:16.572Z,95812.97
2023-01-20T14:13:52.605Z,95803.78
2023-01-20T14:16:30.034Z,95816.09
2023-01-20T14:19:20.036Z,95834.66
2023-01-20T14:21:53.499Z,95807.56
2023-01-20T14:24:32.792Z,95819.88
2023-01-20T14:27:17.840Z,95843.84
2023-01-20T14:29:49.031Z,95816.25
2023-01-20T14:32:25.323Z,95819.19
2023-01-20T14:34:53.310Z,95823.50
2023-01-20T14:37:36.694Z,95849.44
2023-01-20T14:40:27.222Z,95845.19
2023-01-20T14:43:00.479Z,95841.25
2023-01-20T14:45:32.910Z,95849.78
2023-01-20T14:48:02.990Z,95846.00
2023-01-20T14:50:33.887Z,95839.28
2023-01-20T14:53:01.134Z,95816.31
2023-01-20T14:55:44.391Z,95811.72
2023-01-20T14:58:18.043Z,95801.06
2023-01-20T15:00:47.234Z,95827.66
2023-01-20T15:03:25.728Z,95841.91
2023-01-20T15:06:20.587Z,95837.16
2023-01-20T15:09:05.063Z,95832.06
2023-01-20T15:11:33.013Z,95836.34
2023-01-20T15:14:02.186Z,95822.56
2023-01-20T15:16:46.782Z,95827.84
2023-01-20T15:19:13.774Z,95830.13
2023-01-20T15:21:56.427Z,95838.69
2023-01-20T15:24:37.433Z,95855.06
2023-01-20T15:27:22.016Z,95830.63
2023-01-20T15:30:22.992Z,95828.50
2023-01-20T15:32:51.460Z,95840.00
2023-01-20T15:35:22.897Z,95831.44
2023-01-20T15:37:50.388Z,95835.88
2023-01-20T15:40:20.566Z,95835.22
2023-01-20T15:42:48.898Z,95853.25
2023-01-20T15:45:16.651Z,95852.28
2023-01-20T15:47:45.863Z,95855.88
2023-01-20T15:50:19.935Z,95856.69
2023-01-20T15:52:47.181Z,95846.53
2023-01-20T15:55:19.668Z,95852.78
2023-01-20T15:57:50.388Z,95866.88
2023-01-20T16:00:20.007Z,95877.38
2023-01-20T16:02:47.385Z,95890.84
2023-01-20T16:05:18.263Z,95898.06
2023-01-20T16:07:47.963Z,95907.59
2023-01-20T16:10:21.844Z,95935.50
2023-01-20T16:12:49.096Z,95938.44
2023-01-20T16:15:20.974Z,95938.75
2023-01-20T16:17:48.055Z,95958.13
2023-01-20T16:20:23.782Z,95970.75
2023-01-20T16:22:52.029Z,95973.56
2023-01-20T16:25:20.840Z,95983.91
2023-01-20T16:27:48.171Z,95994.91
2023-01-20T16:30:21.258Z,96002.47
2023-01-20T16:32:48.852Z,96004.59
2023-01-20T16:35:18.725Z,96019.22
2023-01-20T16:37:47.652Z,96032.66
2023-01-20T16:40:17.603Z,96057.28
2023-01-20T16:42:45.708Z,96099.63
2023-01-20T16:45:26.597Z,96122.84
2023-01-20T16:47:53.998Z,96129.72
2023-01-20T16:50:21.764Z,96145.16
2023-01-20T16:52:51.768Z,96172.75
2023-01-20T16:55:19.363Z,96179.19
2023-01-20T16:57:46.777Z,96189.06
2023-01-20T17:00:18.239Z,96181.56
2023-01-20T17:02:50.392Z,96192.75
2023-01-20T17:05:22.460Z,96187.22
2023-01-20T17:07:50.433Z,96187.69
2023-01-20T17:10:21.058Z,96191.59
2023-01-20T17:12:49.084Z,96185.50
2023-01-20T17:15:18.675Z,96206.34
2023-01-20T17:17:54.879Z,96224.94
2023-01-20T17:20:22.402Z,96232.09
2023-01-20T17:22:49.381Z,96235.41
2023-01-20T17:25:19.337Z,96250.84
2023-01-20T17:27:46.577Z,96251.50
2023-01-20T17:30:15.847Z,96260.03
2023-01-20T17:32:48.048Z,96267.75
2023-01-20T17:35:16.666Z,96270.91
2023-01-20T17:37:43.807Z,96277.22
2023-01-20T17:40:13.064Z,96267.91
2023-01-20T17:42:40.441Z,96261.31
2023-01-20T17:45:08.285Z,96265.94
2023-01-20T17:47:35.300Z,96283.00
2023-01-20T17:50:02.761Z,96292.13
2023-01-20T17:52:30.169Z,96315.56
2023-01-20T17:54:57.357Z,96321.72
2023-01-20T17:57:26.794Z,96337.84
2023-01-20T17:59:54.453Z,96337.97
2023-01-20T18:02:22.565Z,96340.88
2023-01-20T18:04:49.839Z,96336.50
2023-01-20T18:07:17.278Z,96334.25
2023-01-20T18:09:44.482Z,96346.25
2023-01-20T18:12:11.311Z,96350.50
2023-01-20T18:14:38.855Z,96348.59
2023-01-20T18:17:05.878Z,96357.97
2023-01-20T18:19:32.691Z,96352.97
2023-01-20T18:22:02.019Z,96366.38
2023-01-20T18:24:28.741Z,96376.69
2023-01-20T18:26:57.790Z,96386.50
2023-01-20T18:29:24.729Z,96395.88
2023-01-20T18:31:51.579Z,96395.44
2023-01-20T18:34:18.475Z,96409.81
2023-01-20T18:36:46.405Z,96407.78
2023-01-20T18:39:12.988Z,96415.34
2023-01-20T18:41:40.279Z,96414.84
2023-01-20T18:44:08.546Z,96416.22
2023-01-20T18:46:36.506Z,96425.84
2023-01-20T18:49:03.906Z,96426.22
2023-01-20T18:51:32.162Z,96421.16
2023-01-20T18:54:07.928Z,96419.25
2023-01-20T18:56:35.658Z,96416.78
2023-01-20T18:59:04.989Z,96437.69
2023-01-20T19:01:34.960Z,96440.41
2023-01-20T19:04:03.573Z,96442.84
2023-01-20T19:06:34.612Z,96448.84
2023-01-20T19:09:02.701Z,96457.84
2023-01-20T19:11:32.568Z,96467.66
2023-01-20T19:14:00.127Z,96474.75
2023-01-20T19:16:33.083Z,96477.69
2023-01-20T19:19:07.745Z,96480.28
2023-01-20T19:21:36.983Z,96488.63
2023-01-20T19:24:06.240Z,96494.59
2023-01-20T19:26:35.784Z,96503.41
2023-01-20T19:29:06.503Z,96509.19
2023-01-20T19:31:37.059Z,96521.25
2023-01-20T19:34:06.627Z,96524.75
2023-01-20T19:36:34.349Z,96528.66
2023-01-20T19:39:01.318Z,96522.91
2023-01-20T19:41:33.506Z,96522.00
2023-01-20T19:44:03.170Z,96537.25
2023-01-20T19:46:33.083Z,96543.50
2023-01-20T19:49:02.383Z,96541.16
2023-01-20T19:51:31.680Z,96549.50
2023-01-20T19:54:03.333Z,96549.06
2023-01-20T19:56:32.631Z,96559.53
2023-01-20T19:59:03.284Z,96567.13
2023-01-20T20:01:34.951Z,96561.38
2023-01-20T20:04:07.477Z,96566.72
2023-01-20T20:06:36.778Z,96566.72
2023-01-20T20:09:10.417Z,96571.38
2023-01-20T20:11:37.944Z,96573.84
2023-01-20T20:14:06.880Z,96575.59
2023-01-20T20:16:36.127Z,96568.50
2023-01-20T20:19:03.382Z,96568.50
2023-01-20T20:21:30.590Z,96568.75
2023-01-20T20:24:01.066Z,96567.09
2023-01-20T20:26:31.088Z,96568.03
2023-01-20T20:29:02.420Z,96576.69
2023-01-20T20:31:30.245Z,96570.38
2023-01-20T20:34:01.651Z,96579.56
2023-01-20T20:36:31.086Z,96584.19
2023-01-20T20:38:59.499Z,96598.06
2023-01-20T20:41:29.331Z,96608.31
2023-01-20T20:43:56.875Z,96604.38
2023-01-20T20:46:24.527Z,96616.81
2023-01-20T20:48:56.664Z,96618.22
2023-01-20T20:51:24.265Z,96619.97
2023-01-20T20:53:56.203Z,96621.06
2023-01-20T20:56:24.630Z,96621.88
2023-01-20T20:59:01.288Z,96615.25
2023-01-20T21:01:30.734Z,96614.97
2023-01-20T21:03:57.884Z,96609.06
2023-01-20T21:06:25.604Z,96630.59
2023-01-20T21:08:53.423Z,96630.25
2023-01-20T21:11:20.454Z,96642.97
2023-01-20T21:13:49.587Z,96654.94
2023-01-20T21:16:22.243Z,96661.97
2023-01-20T21:18:50.407Z,96670.38
2023-01-20T21:21:20.067Z,96661.22
2023-01-20T21:23:55.588Z,96664.19
2023-01-20T21:26:24.061Z,96665.84
2023-01-20T21:28:50.909Z,96677.03
2023-01-20T21:31:23.531Z,96679.03
2023-01-20T21:33:55.403Z,96670.22
2023-01-20T21:36:23.086Z,96665.00
2023-01-20T21:38:50.504Z,96672.72
2023-01-20T21:41:18.299Z,96664.91
2023-01-20T21:44:05.654Z,96666.34
2023-01-20T21:46:39.178Z,96675.69
2023-01-20T21:49:25.890Z,96675.13
2023-01-20T21:52:11.379Z,96690.16
2023-01-20T21:54:39.890Z,96694.84
2023-01-20T21:57:07.073Z,96696.97
2023-01-20T21:59:34.064Z,96695.31
2023-01-20T22:02:01.286Z,96699.13
2023-01-20T22:04:28.107Z,96714.53
2023-01-20T22:06:54.811Z,96716.22
2023-01-20T22:09:21.767Z,96722.63
2023-01-20T22:11:49.696Z,96719.03
2023-01-20T22:14:16.447Z,96723.19
2023-01-20T22:16:43.205Z,96725.22
2023-01-20T22:19:15.594Z,96724.50
2023-01-20T22:21:42.771Z,96720.81
2023-01-20T22:24:10.721Z,96718.31
2023-01-20T22:26:37.543Z,96722.13
2023-01-20T22:29:04.580Z,96728.47
2023-01-20T22:31:34.051Z,96723.81
2023-01-20T22:34:05.466Z,96722.13
2023-01-20T22:36:34.590Z,96727.72
2023-01-20T22:39:02.285Z,96722.28
2023-01-20T22:41:32.231Z,96720.97
2023-01-20T22:43:59.166Z,96713.91
2023-01-20T22:46:27.634Z,96715.53
2023-01-20T22:48:58.992Z,96715.75
2023-01-20T22:51:28.252Z,96711.03
2023-01-20T22:53:59.095Z,96709.59
2023-01-20T22:56:28.009Z,96712.00
2023-01-20T22:58:55.860Z,96721.50
2023-01-20T23:01:31.954Z,96724.34
2023-01-20T23:04:01.064Z,96718.38
2023-01-20T23:06:47.977Z,96721.59
2023-01-20T23:09:14.921Z,96733.47
2023-01-20T23:11:42.147Z,96736.66
2023-01-20T23:14:12.806Z,96739.66
2023-01-20T23:16:40.771Z,96742.50
2023-01-20T23:19:08.543Z,96737.88
2023-01-20T23:21:35.840Z,96741.66
2023-01-20T23:24:02.754Z,96733.59
2023-01-20T23:26:31.119Z,96738.09
2023-01-20T23:28:58.259Z,96729.91
2023-01-20T23:31:26.103Z,96738.31
2023-01-20T23:33:55.824Z,96744.94
2023-01-20T23:36:24.873Z,96739.72
2023-01-20T23:38:54.370Z,96750.13
2023-01-20T23:41:21.756Z,96748.97
2023-01-20T23:43:49.068Z,96748.78
2023-01-20T23:46:16.171Z,96748.88
2023-01-20T23:48:45.826Z,96742.00
2023-01-20T23:51:13.117Z,96742.63
2023-01-20T23:53:41.007Z,96747.28
2023-01-20T23:56:15.634Z,96741.94
2023-01-20T23:58:43.076Z,96735.44
